sensor_id;sensor_type;location;lat;lon;timestamp;pressure;altitude;pressure_sealevel;temperature;humidity
27587;BME280;15019;49.002;8.420;2022-08-14T00:00:38;99733.72;;;20.94;49.36
27587;BME280;15019;49.002;8.420;2022-08-14T00:03:03;99733.19;;;20.87;49.45
27587;BME280;15019;49.002;8.420;2022-08-14T00:05:29;99736.59;;;20.88;49.58
27587;BME280;15019;49.002;8.420;2022-08-14T00:07:54;99733.72;;;20.94;49.39
27587;BME280;15019;49.002;8.420;2022-08-14T00:10:21;99728.72;;;20.91;49.33
27587;BME280;15019;49.002;8.420;2022-08-14T00:12:52;99727.03;;;20.90;48.90
27587;BME280;15019;49.002;8.420;2022-08-14T00:15:22;99720.91;;;20.92;49.59
27587;BME280;15019;49.002;8.420;2022-08-14T00:17:49;99725.84;;;20.79;49.81
27587;BME280;15019;49.002;8.420;2022-08-14T00:20:16;99729.50;;;20.75;49.90
27587;BME280;15019;49.002;8.420;2022-08-14T00:22:42;99720.13;;;20.74;49.85
27587;BME280;15019;49.002;8.420;2022-08-14T00:25:08;99724.34;;;20.75;49.90
27587;BME280;15019;49.002;8.420;2022-08-14T00:27:34;99724.19;;;20.78;49.86
27587;BME280;15019;49.002;8.420;2022-08-14T00:29:59;99727.53;;;20.80;50.10
27587;BME280;15019;49.002;8.420;2022-08-14T00:32:25;99726.63;;;20.81;49.86
27587;BME280;15019;49.002;8.420;2022-08-14T00:34:50;99722.22;;;20.83;49.69
27587;BME280;15019;49.002;8.420;2022-08-14T00:37:16;99717.22;;;20.80;49.83
27587;BME280;15019;49.002;8.420;2022-08-14T00:39:41;99723.13;;;20.82;50.01
27587;BME280;15019;49.002;8.420;2022-08-14T00:42:06;99722.06;;;20.87;49.75
27587;BME280;15019;49.002;8.420;2022-08-14T00:44:32;99725.22;;;20.92;49.80
27587;BME280;15019;49.002;8.420;2022-08-14T00:46:57;99724.66;;;20.87;50.04
27587;BME280;15019;49.002;8.420;2022-08-14T00:49:22;99721.47;;;20.81;50.02
27587;BME280;15019;49.002;8.420;2022-08-14T00:51:48;99719.34;;;20.72;50.37
27587;BME280;15019;49.002;8.420;2022-08-14T00:54:13;99722.97;;;20.68;50.48
27587;BME280;15019;49.002;8.420;2022-08-14T00:56:39;99710.72;;;20.73;50.61
27587;BME280;15019;49.002;8.420;2022-08-14T00:59:04;99698.88;;;20.69;50.65
27587;BME280;15019;49.002;8.420;2022-08-14T01:01:30;99697.22;;;20.68;50.88
27587;BME280;15019;49.002;8.420;2022-08-14T01:03:56;99692.06;;;20.68;50.75
27587;BME280;15019;49.002;8.420;2022-08-14T01:06:21;99694.06;;;20.63;51.08
27587;BME280;15019;49.002;8.420;2022-08-14T01:08:47;99678.75;;;20.60;51.03
27587;BME280;15019;49.002;8.420;2022-08-14T01:11:12;99673.75;;;20.57;51.25
27587;BME280;15019;49.002;8.420;2022-08-14T01:13:38;99673.94;;;20.54;51.58
27587;BME280;15019;49.002;8.420;2022-08-14T01:16:10;99679.69;;;20.42;51.84
27587;BME280;15019;49.002;8.420;2022-08-14T01:18:35;99681.56;;;20.38;52.23
27587;BME280;15019;49.002;8.420;2022-08-14T01:21:01;99676.50;;;20.37;52.21
27587;BME280;15019;49.002;8.420;2022-08-14T01:23:27;99679.97;;;20.36;52.23
27587;BME280;15019;49.002;8.420;2022-08-14T01:25:52;99678.31;;;20.35;52.31
27587;BME280;15019;49.002;8.420;2022-08-14T01:28:19;99673.59;;;20.26;52.52
27587;BME280;15019;49.002;8.420;2022-08-14T01:30:45;99673.38;;;20.30;52.48
27587;BME280;15019;49.002;8.420;2022-08-14T01:33:10;99668.63;;;20.23;52.38
27587;BME280;15019;49.002;8.420;2022-08-14T01:35:36;99663.97;;;20.29;52.23
27587;BME280;15019;49.002;8.420;2022-08-14T01:38:01;99679.44;;;20.29;52.54
27587;BME280;15019;49.002;8.420;2022-08-14T01:40:28;99669.13;;;20.29;52.55
27587;BME280;15019;49.002;8.420;2022-08-14T01:42:53;99661.34;;;20.31;52.23
27587;BME280;15019;49.002;8.420;2022-08-14T01:45:18;99669.69;;;20.36;52.67
27587;BME280;15019;49.002;8.420;2022-08-14T01:47:43;99670.94;;;20.27;53.52
27587;BME280;15019;49.002;8.420;2022-08-14T01:50:09;99658.16;;;20.26;53.92
27587;BME280;15019;49.002;8.420;2022-08-14T01:52:36;99660.28;;;20.18;56.02
27587;BME280;15019;49.002;8.420;2022-08-14T01:55:04;99653.47;;;19.99;53.90
27587;BME280;15019;49.002;8.420;2022-08-14T01:57:32;99644.78;;;20.02;54.08
27587;BME280;15019;49.002;8.420;2022-08-14T01:59:58;99641.97;;;20.06;53.96
27587;BME280;15019;49.002;8.420;2022-08-14T02:02:24;99647.25;;;20.03;53.87
27587;BME280;15019;49.002;8.420;2022-08-14T02:04:49;99644.78;;;20.02;54.03
27587;BME280;15019;49.002;8.420;2022-08-14T02:07:14;99650.06;;;19.99;54.48
27587;BME280;15019;49.002;8.420;2022-08-14T02:09:41;99643.25;;;19.98;54.74
27587;BME280;15019;49.002;8.420;2022-08-14T02:12:07;99637.03;;;19.85;55.44
27587;BME280;15019;49.002;8.420;2022-08-14T02:14:33;99642.56;;;19.77;55.22
27587;BME280;15019;49.002;8.420;2022-08-14T02:16:59;99634.00;;;19.77;55.13
27587;BME280;15019;49.002;8.420;2022-08-14T02:19:28;99631.19;;;19.81;55.04
27587;BME280;15019;49.002;8.420;2022-08-14T02:21:56;99621.13;;;19.77;54.98
27587;BME280;15019;49.002;8.420;2022-08-14T02:24:24;99621.19;;;19.75;55.83
27587;BME280;15019;49.002;8.420;2022-08-14T02:26:50;99626.03;;;19.81;55.28
27587;BME280;15019;49.002;8.420;2022-08-14T02:29:21;99622.09;;;19.74;55.55
27587;BME280;15019;49.002;8.420;2022-08-14T02:31:49;99612.78;;;19.71;55.44
27587;BME280;15019;49.002;8.420;2022-08-14T02:34:17;99611.34;;;19.66;55.14
27587;BME280;15019;49.002;8.420;2022-08-14T02:36:44;99606.53;;;19.60;55.63
27587;BME280;15019;49.002;8.420;2022-08-14T02:39:11;99608.34;;;19.58;55.81
27587;BME280;15019;49.002;8.420;2022-08-14T02:41:37;99605.28;;;19.50;56.23
27587;BME280;15019;49.002;8.420;2022-08-14T02:44:05;99596.66;;;19.51;56.37
27587;BME280;15019;49.002;8.420;2022-08-14T02:46:30;99602.06;;;19.45;56.53
27587;BME280;15019;49.002;8.420;2022-08-14T02:48:56;99601.44;;;19.39;56.30
27587;BME280;15019;49.002;8.420;2022-08-14T02:51:22;99606.50;;;19.41;56.68
27587;BME280;15019;49.002;8.420;2022-08-14T02:53:47;99596.28;;;19.39;56.21
27587;BME280;15019;49.002;8.420;2022-08-14T02:56:15;99598.59;;;19.46;56.08
27587;BME280;15019;49.002;8.420;2022-08-14T02:58:43;99588.31;;;19.46;55.99
27587;BME280;15019;49.002;8.420;2022-08-14T03:01:09;99593.34;;;19.49;55.67
27587;BME280;15019;49.002;8.420;2022-08-14T03:03:35;99596.78;;;19.48;55.81
27587;BME280;15019;49.002;8.420;2022-08-14T03:06:05;99599.69;;;19.40;56.14
27587;BME280;15019;49.002;8.420;2022-08-14T03:08:32;99598.72;;;19.43;56.48
27587;BME280;15019;49.002;8.420;2022-08-14T03:10:59;99601.09;;;19.47;56.06
27587;BME280;15019;49.002;8.420;2022-08-14T03:13:25;99592.63;;;19.45;55.68
27587;BME280;15019;49.002;8.420;2022-08-14T03:15:51;99585.28;;;19.37;56.11
27587;BME280;15019;49.002;8.420;2022-08-14T03:18:16;99579.84;;;19.44;56.00
27587;BME280;15019;49.002;8.420;2022-08-14T03:20:41;99571.34;;;19.42;55.90
27587;BME280;15019;49.002;8.420;2022-08-14T03:23:07;99564.84;;;19.34;56.15
27587;BME280;15019;49.002;8.420;2022-08-14T03:25:32;99574.16;;;19.37;56.04
27587;BME280;15019;49.002;8.420;2022-08-14T03:28:01;99578.28;;;19.39;55.66
27587;BME280;15019;49.002;8.420;2022-08-14T03:30:27;99573.03;;;19.43;56.00
27587;BME280;15019;49.002;8.420;2022-08-14T03:32:52;99566.22;;;19.42;55.67
27587;BME280;15019;49.002;8.420;2022-08-14T03:35:17;99571.53;;;19.38;55.83
27587;BME280;15019;49.002;8.420;2022-08-14T03:37:43;99566.53;;;19.35;55.92
27587;BME280;15019;49.002;8.420;2022-08-14T03:40:09;99574.09;;;19.38;56.12
27587;BME280;15019;49.002;8.420;2022-08-14T03:42:34;99575.13;;;19.34;55.99
27587;BME280;15019;49.002;8.420;2022-08-14T03:45:00;99575.63;;;19.24;56.30
27587;BME280;15019;49.002;8.420;2022-08-14T03:47:25;99572.09;;;19.26;56.39
27587;BME280;15019;49.002;8.420;2022-08-14T03:49:50;99574.72;;;19.25;56.38
27587;BME280;15019;49.002;8.420;2022-08-14T03:52:16;99571.94;;;19.29;56.27
27587;BME280;15019;49.002;8.420;2022-08-14T03:54:42;99568.75;;;19.24;56.64
27587;BME280;15019;49.002;8.420;2022-08-14T03:57:07;99570.69;;;19.19;56.91
27587;BME280;15019;49.002;8.420;2022-08-14T03:59:33;99560.84;;;19.10;57.36
27587;BME280;15019;49.002;8.420;2022-08-14T04:01:59;99558.72;;;19.01;57.56
27587;BME280;15019;49.002;8.420;2022-08-14T04:04:24;99552.03;;;18.97;57.67
27587;BME280;15019;49.002;8.420;2022-08-14T04:06:49;99546.78;;;19.00;57.62
27587;BME280;15019;49.002;8.420;2022-08-14T04:09:15;99545.56;;;19.07;57.55
27587;BME280;15019;49.002;8.420;2022-08-14T04:11:40;99549.59;;;19.13;57.31
27587;BME280;15019;49.002;8.420;2022-08-14T04:14:05;99547.09;;;19.11;56.93
27587;BME280;15019;49.002;8.420;2022-08-14T04:16:31;99541.97;;;19.11;57.01
27587;BME280;15019;49.002;8.420;2022-08-14T04:18:58;99550.31;;;19.16;56.90
27587;BME280;15019;49.002;8.420;2022-08-14T04:21:26;99553.78;;;19.15;56.87
27587;BME280;15019;49.002;8.420;2022-08-14T04:23:53;99557.13;;;19.17;57.84
27587;BME280;15019;49.002;8.420;2022-08-14T04:26:19;99560.59;;;19.16;56.92
27587;BME280;15019;49.002;8.420;2022-08-14T04:28:45;99562.25;;;19.17;57.23
27587;BME280;15019;49.002;8.420;2022-08-14T04:31:11;99566.56;;;19.17;57.67
27587;BME280;15019;49.002;8.420;2022-08-14T04:33:36;99563.50;;;19.09;58.24
27587;BME280;15019;49.002;8.420;2022-08-14T04:36:02;99559.63;;;19.00;58.56
27587;BME280;15019;49.002;8.420;2022-08-14T04:38:28;99568.03;;;18.85;58.93
27587;BME280;15019;49.002;8.420;2022-08-14T04:40:55;99568.72;;;18.70;59.37
27587;BME280;15019;49.002;8.420;2022-08-14T04:43:20;99574.50;;;18.75;59.43
27587;BME280;15019;49.002;8.420;2022-08-14T04:45:46;99573.25;;;18.64;59.87
27587;BME280;15019;49.002;8.420;2022-08-14T04:48:13;99583.34;;;18.68;59.61
27587;BME280;15019;49.002;8.420;2022-08-14T04:50:48;99574.06;;;18.65;59.66
27587;BME280;15019;49.002;8.420;2022-08-14T04:53:16;99573.84;;;18.70;59.64
27587;BME280;15019;49.002;8.420;2022-08-14T04:55:43;99572.31;;;18.65;59.70
27587;BME280;15019;49.002;8.420;2022-08-14T04:58:09;99568.72;;;18.70;59.66
27587;BME280;15019;49.002;8.420;2022-08-14T05:00:35;99570.69;;;18.64;60.08
27587;BME280;15019;49.002;8.420;2022-08-14T05:03:00;99580.59;;;18.72;59.63
27587;BME280;15019;49.002;8.420;2022-08-14T05:05:26;99579.69;;;18.73;59.71
27587;BME280;15019;49.002;8.420;2022-08-14T05:07:51;99575.25;;;18.77;59.47
27587;BME280;15019;49.002;8.420;2022-08-14T05:10:17;99576.91;;;18.78;59.55
27587;BME280;15019;49.002;8.420;2022-08-14T05:12:42;99571.56;;;18.82;59.21
27587;BME280;15019;49.002;8.420;2022-08-14T05:15:08;99573.91;;;18.87;59.27
27587;BME280;15019;49.002;8.420;2022-08-14T05:17:33;99571.84;;;18.95;58.89
27587;BME280;15019;49.002;8.420;2022-08-14T05:20:05;99575.03;;;19.00;58.84
27587;BME280;15019;49.002;8.420;2022-08-14T05:22:30;99568.38;;;18.96;59.06
27587;BME280;15019;49.002;8.420;2022-08-14T05:24:55;99576.09;;;18.96;59.15
27587;BME280;15019;49.002;8.420;2022-08-14T05:27:21;99576.91;;;18.96;59.11
27587;BME280;15019;49.002;8.420;2022-08-14T05:29:46;99567.75;;;18.91;58.91
27587;BME280;15019;49.002;8.420;2022-08-14T05:32:12;99561.72;;;18.92;59.40
27587;BME280;15019;49.002;8.420;2022-08-14T05:34:37;99565.06;;;18.94;59.49
27587;BME280;15019;49.002;8.420;2022-08-14T05:37:02;99553.56;;;19.01;59.45
27587;BME280;15019;49.002;8.420;2022-08-14T05:39:28;99552.69;;;19.02;59.43
27587;BME280;15019;49.002;8.420;2022-08-14T05:41:53;99558.50;;;19.06;59.39
27587;BME280;15019;49.002;8.420;2022-08-14T05:44:19;99559.06;;;19.12;58.96
27587;BME280;15019;49.002;8.420;2022-08-14T05:46:45;99561.25;;;19.20;58.60
27587;BME280;15019;49.002;8.420;2022-08-14T05:49:10;99566.66;;;19.32;58.56
27587;BME280;15019;49.002;8.420;2022-08-14T05:51:41;99561.56;;;19.50;58.60
27587;BME280;15019;49.002;8.420;2022-08-14T05:54:06;99565.38;;;19.60;57.69
27587;BME280;15019;49.002;8.420;2022-08-14T05:56:32;99560.06;;;19.63;57.86
27587;BME280;15019;49.002;8.420;2022-08-14T05:58:57;99562.09;;;19.73;57.40
27587;BME280;15019;49.002;8.420;2022-08-14T06:01:23;99566.59;;;19.87;57.10
27587;BME280;15019;49.002;8.420;2022-08-14T06:03:48;99558.25;;;19.99;56.72
27587;BME280;15019;49.002;8.420;2022-08-14T06:06:13;99554.44;;;20.06;56.54
27587;BME280;15019;49.002;8.420;2022-08-14T06:08:39;99552.78;;;20.05;56.06
27587;BME280;15019;49.002;8.420;2022-08-14T06:11:06;99546.94;;;20.19;55.70
27587;BME280;15019;49.002;8.420;2022-08-14T06:13:37;99530.25;;;20.26;55.86
27587;BME280;15019;49.002;8.420;2022-08-14T06:16:03;99525.19;;;20.25;55.84
27587;BME280;15019;49.002;8.420;2022-08-14T06:18:29;99524.66;;;20.35;55.79
27587;BME280;15019;49.002;8.420;2022-08-14T06:20:54;99539.81;;;20.41;55.35
27587;BME280;15019;49.002;8.420;2022-08-14T06:23:20;99535.41;;;20.59;55.16
27587;BME280;15019;49.002;8.420;2022-08-14T06:25:45;99532.69;;;20.78;54.70
27587;BME280;15019;49.002;8.420;2022-08-14T06:28:18;99522.06;;;20.84;54.01
27587;BME280;15019;49.002;8.420;2022-08-14T06:30:45;99515.72;;;21.05;53.60
27587;BME280;15019;49.002;8.420;2022-08-14T06:33:11;99522.53;;;21.22;53.33
27587;BME280;15019;49.002;8.420;2022-08-14T06:35:36;99518.03;;;21.10;53.71
27587;BME280;15019;49.002;8.420;2022-08-14T06:38:02;99517.69;;;21.32;53.61
27587;BME280;15019;49.002;8.420;2022-08-14T06:40:33;99507.69;;;21.41;53.22
27587;BME280;15019;49.002;8.420;2022-08-14T06:43:04;99510.13;;;21.59;53.38
27587;BME280;15019;49.002;8.420;2022-08-14T06:45:31;99507.72;;;21.55;53.04
27587;BME280;15019;49.002;8.420;2022-08-14T06:47:57;99507.41;;;21.76;52.57
27587;BME280;15019;49.002;8.420;2022-08-14T06:50:23;99505.94;;;21.86;52.86
27587;BME280;15019;49.002;8.420;2022-08-14T06:52:48;99505.63;;;22.20;52.38
27587;BME280;15019;49.002;8.420;2022-08-14T06:55:15;99504.28;;;22.84;50.11
27587;BME280;15019;49.002;8.420;2022-08-14T06:57:44;99503.81;;;23.44;49.14
27587;BME280;15019;49.002;8.420;2022-08-14T07:00:18;99488.59;;;23.00;49.99
27587;BME280;15019;49.002;8.420;2022-08-14T07:02:43;99489.81;;;22.94;50.63
27587;BME280;15019;49.002;8.420;2022-08-14T07:05:09;99489.25;;;23.04;50.10
27587;BME280;15019;49.002;8.420;2022-08-14T07:07:36;99491.69;;;23.19;50.13
27587;BME280;15019;49.002;8.420;2022-08-14T07:10:02;99495.38;;;23.55;48.73
27587;BME280;15019;49.002;8.420;2022-08-14T07:12:28;99495.81;;;23.87;48.15
27587;BME280;15019;49.002;8.420;2022-08-14T07:14:53;99494.47;;;24.06;48.03
27587;BME280;15019;49.002;8.420;2022-08-14T07:17:18;99500.19;;;24.12;48.00
27587;BME280;15019;49.002;8.420;2022-08-14T07:19:44;99509.28;;;24.42;47.97
27587;BME280;15019;49.002;8.420;2022-08-14T07:22:09;99513.31;;;24.83;46.36
27587;BME280;15019;49.002;8.420;2022-08-14T07:24:34;99520.44;;;24.68;47.50
27587;BME280;15019;49.002;8.420;2022-08-14T07:27:00;99514.81;;;24.62;46.63
27587;BME280;15019;49.002;8.420;2022-08-14T07:29:25;99510.53;;;24.73;46.20
27587;BME280;15019;49.002;8.420;2022-08-14T07:31:50;99512.94;;;24.76;45.70
27587;BME280;15019;49.002;8.420;2022-08-14T07:34:16;99514.47;;;25.50;44.60
27587;BME280;15019;49.002;8.420;2022-08-14T07:36:41;99507.59;;;26.74;42.41
27587;BME280;15019;49.002;8.420;2022-08-14T07:39:06;99493.28;;;27.22;40.82
27587;BME280;15019;49.002;8.420;2022-08-14T07:41:32;99498.19;;;27.78;40.14
27587;BME280;15019;49.002;8.420;2022-08-14T07:43:57;99487.03;;;27.34;40.08
27587;BME280;15019;49.002;8.420;2022-08-14T07:46:22;99487.03;;;28.18;38.53
27587;BME280;15019;49.002;8.420;2022-08-14T07:48:52;99499.09;;;28.19;38.23
27587;BME280;15019;49.002;8.420;2022-08-14T07:51:18;99497.84;;;28.63;37.79
27587;BME280;15019;49.002;8.420;2022-08-14T07:53:44;99501.25;;;29.32;36.12
27587;BME280;15019;49.002;8.420;2022-08-14T07:56:09;99500.25;;;28.95;36.61
27587;BME280;15019;49.002;8.420;2022-08-14T07:58:35;99502.50;;;30.04;35.75
27587;BME280;15019;49.002;8.420;2022-08-14T08:01:00;99505.47;;;30.73;34.17
27587;BME280;15019;49.002;8.420;2022-08-14T08:03:27;99502.78;;;29.91;35.28
27587;BME280;15019;49.002;8.420;2022-08-14T08:05:53;99496.00;;;30.72;33.98
27587;BME280;15019;49.002;8.420;2022-08-14T08:08:18;99504.69;;;30.08;35.49
27587;BME280;15019;49.002;8.420;2022-08-14T08:10:45;99501.19;;;29.71;34.82
27587;BME280;15019;49.002;8.420;2022-08-14T08:13:14;99512.53;;;31.26;33.91
27587;BME280;15019;49.002;8.420;2022-08-14T08:15:48;99501.66;;;31.56;32.54
27587;BME280;15019;49.002;8.420;2022-08-14T08:18:15;99502.31;;;32.10;32.24
27587;BME280;15019;49.002;8.420;2022-08-14T08:20:46;99499.63;;;32.02;30.93
27587;BME280;15019;49.002;8.420;2022-08-14T08:23:14;99496.03;;;31.51;31.82
27587;BME280;15019;49.002;8.420;2022-08-14T08:25:42;99510.06;;;31.86;31.04
27587;BME280;15019;49.002;8.420;2022-08-14T08:28:10;99510.09;;;32.62;31.49
27587;BME280;15019;49.002;8.420;2022-08-14T08:30:38;99507.88;;;32.83;31.07
27587;BME280;15019;49.002;8.420;2022-08-14T08:33:08;99502.94;;;32.96;29.84
27587;BME280;15019;49.002;8.420;2022-08-14T08:35:35;99497.84;;;33.60;30.76
27587;BME280;15019;49.002;8.420;2022-08-14T08:38:13;99497.53;;;33.22;30.48
27587;BME280;15019;49.002;8.420;2022-08-14T08:40:42;99489.13;;;32.78;29.94
27587;BME280;15019;49.002;8.420;2022-08-14T08:43:22;99485.41;;;33.29;28.97
27587;BME280;15019;49.002;8.420;2022-08-14T08:46:03;99475.69;;;33.38;29.08
27587;BME280;15019;49.002;8.420;2022-08-14T08:48:41;99478.31;;;33.22;29.28
27587;BME280;15019;49.002;8.420;2022-08-14T08:51:07;99466.81;;;32.82;29.26
27587;BME280;15019;49.002;8.420;2022-08-14T08:53:34;99463.22;;;33.16;28.35
27587;BME280;15019;49.002;8.420;2022-08-14T08:56:00;99471.75;;;33.50;27.71
27587;BME280;15019;49.002;8.420;2022-08-14T08:58:25;99465.84;;;33.32;27.53
27587;BME280;15019;49.002;8.420;2022-08-14T09:00:53;99458.94;;;33.55;28.35
27587;BME280;15019;49.002;8.420;2022-08-14T09:03:21;99465.28;;;34.24;26.78
27587;BME280;15019;49.002;8.420;2022-08-14T09:08:24;99467.38;;;35.13;25.70
27587;BME280;15019;49.002;8.420;2022-08-14T09:10:50;99458.28;;;34.70;25.66
27587;BME280;15019;49.002;8.420;2022-08-14T09:13:16;99464.84;;;35.20;24.81
27587;BME280;15019;49.002;8.420;2022-08-14T09:15:44;99471.00;;;35.12;24.75
27587;BME280;15019;49.002;8.420;2022-08-14T09:18:11;99480.50;;;34.76;24.55
27587;BME280;15019;49.002;8.420;2022-08-14T09:20:42;99486.69;;;34.21;25.74
27587;BME280;15019;49.002;8.420;2022-08-14T09:23:08;99473.19;;;34.32;24.83
27587;BME280;15019;49.002;8.420;2022-08-14T09:25:35;99467.47;;;34.51;24.86
27587;BME280;15019;49.002;8.420;2022-08-14T09:28:02;99466.47;;;34.83;25.00
27587;BME280;15019;49.002;8.420;2022-08-14T09:30:28;99464.03;;;34.74;24.35
27587;BME280;15019;49.002;8.420;2022-08-14T09:35:46;99461.00;;;34.62;24.26
27587;BME280;15019;49.002;8.420;2022-08-14T09:38:46;99457.16;;;34.65;24.10
27587;BME280;15019;49.002;8.420;2022-08-14T09:41:36;99441.34;;;34.73;24.18
27587;BME280;15019;49.002;8.420;2022-08-14T09:44:16;99426.50;;;34.49;23.81
27587;BME280;15019;49.002;8.420;2022-08-14T09:46:57;99420.53;;;34.32;24.27
27587;BME280;15019;49.002;8.420;2022-08-14T09:49:31;99414.44;;;34.55;24.42
27587;BME280;15019;49.002;8.420;2022-08-14T09:52:09;99408.84;;;35.03;24.05
27587;BME280;15019;49.002;8.420;2022-08-14T09:54:41;99417.28;;;34.76;24.02
27587;BME280;15019;49.002;8.420;2022-08-14T09:57:06;99415.88;;;34.42;24.66
27587;BME280;15019;49.002;8.420;2022-08-14T09:59:44;99409.75;;;34.65;24.70
27587;BME280;15019;49.002;8.420;2022-08-14T10:02:28;99400.28;;;35.01;23.58
27587;BME280;15019;49.002;8.420;2022-08-14T10:05:03;99395.50;;;34.36;24.49
27587;BME280;15019;49.002;8.420;2022-08-14T10:07:32;99400.47;;;34.31;24.93
27587;BME280;15019;49.002;8.420;2022-08-14T10:09:58;99382.81;;;34.63;24.23
27587;BME280;15019;49.002;8.420;2022-08-14T10:12:26;99381.47;;;35.04;24.11
27587;BME280;15019;49.002;8.420;2022-08-14T10:14:51;99376.88;;;34.38;24.51
27587;BME280;15019;49.002;8.420;2022-08-14T10:17:21;99379.94;;;34.95;24.12
27587;BME280;15019;49.002;8.420;2022-08-14T10:19:48;99387.63;;;34.82;24.69
27587;BME280;15019;49.002;8.420;2022-08-14T10:22:14;99385.66;;;34.76;23.86
27587;BME280;15019;49.002;8.420;2022-08-14T10:24:43;99379.31;;;35.22;24.25
27587;BME280;15019;49.002;8.420;2022-08-14T10:27:17;99378.34;;;34.86;24.18
27587;BME280;15019;49.002;8.420;2022-08-14T10:29:51;99372.81;;;34.81;23.82
27587;BME280;15019;49.002;8.420;2022-08-14T10:32:17;99367.22;;;36.02;23.13
27587;BME280;15019;49.002;8.420;2022-08-14T10:34:44;99348.75;;;35.72;23.17
27587;BME280;15019;49.002;8.420;2022-08-14T10:37:13;99349.19;;;35.25;23.60
27587;BME280;15019;49.002;8.420;2022-08-14T10:39:40;99340.97;;;35.64;23.94
27587;BME280;15019;49.002;8.420;2022-08-14T10:42:10;99347.44;;;35.17;23.87
27587;BME280;15019;49.002;8.420;2022-08-14T10:44:39;99341.66;;;34.99;24.00
27587;BME280;15019;49.002;8.420;2022-08-14T10:47:07;99324.06;;;34.62;24.56
27587;BME280;15019;49.002;8.420;2022-08-14T10:49:34;99333.06;;;35.64;22.82
27587;BME280;15019;49.002;8.420;2022-08-14T10:52:05;99337.06;;;35.31;23.05
27587;BME280;15019;49.002;8.420;2022-08-14T10:54:45;99337.06;;;35.31;23.55
27587;BME280;15019;49.002;8.420;2022-08-14T10:57:25;99328.53;;;34.08;23.95
27587;BME280;15019;49.002;8.420;2022-08-14T11:02:31;99316.41;;;34.53;24.46
27587;BME280;15019;49.002;8.420;2022-08-14T11:05:15;99331.44;;;34.13;24.29
27587;BME280;15019;49.002;8.420;2022-08-14T11:07:54;99323.31;;;33.69;24.57
27587;BME280;15019;49.002;8.420;2022-08-14T11:10:22;99309.69;;;34.27;24.32
27587;BME280;15019;49.002;8.420;2022-08-14T11:12:50;99316.09;;;35.37;23.21
27587;BME280;15019;49.002;8.420;2022-08-14T11:15:22;99325.56;;;34.57;23.46
27587;BME280;15019;49.002;8.420;2022-08-14T11:17:48;99321.75;;;34.59;23.89
27587;BME280;15019;49.002;8.420;2022-08-14T11:20:16;99327.38;;;34.79;23.21
27587;BME280;15019;49.002;8.420;2022-08-14T11:22:42;99326.50;;;35.01;22.92
27587;BME280;15019;49.002;8.420;2022-08-14T11:25:10;99327.13;;;34.28;23.70
27587;BME280;15019;49.002;8.420;2022-08-14T11:27:38;99324.09;;;34.77;23.32
27587;BME280;15019;49.002;8.420;2022-08-14T11:30:06;99309.03;;;34.25;23.09
27587;BME280;15019;49.002;8.420;2022-08-14T11:32:32;99309.13;;;34.55;22.70
27587;BME280;15019;49.002;8.420;2022-08-14T11:34:58;99314.72;;;34.06;22.70
27587;BME280;15019;49.002;8.420;2022-08-14T11:37:24;99304.53;;;34.03;22.54
27587;BME280;15019;49.002;8.420;2022-08-14T11:39:51;99293.19;;;34.02;22.76
27587;BME280;15019;49.002;8.420;2022-08-14T11:42:21;99287.84;;;34.19;23.47
27587;BME280;15019;49.002;8.420;2022-08-14T11:44:47;99294.94;;;33.48;23.13
27587;BME280;15019;49.002;8.420;2022-08-14T11:47:12;99286.41;;;33.85;22.97
27587;BME280;15019;49.002;8.420;2022-08-14T11:49:38;99284.06;;;33.59;22.16
27587;BME280;15019;49.002;8.420;2022-08-14T11:52:03;99290.78;;;33.23;22.66
27587;BME280;15019;49.002;8.420;2022-08-14T11:54:29;99292.03;;;33.43;22.53
27587;BME280;15019;49.002;8.420;2022-08-14T11:56:54;99280.97;;;33.00;23.11
27587;BME280;15019;49.002;8.420;2022-08-14T11:59:19;99270.13;;;33.03;23.31
27587;BME280;15019;49.002;8.420;2022-08-14T12:01:45;99264.09;;;33.42;23.13
27587;BME280;15019;49.002;8.420;2022-08-14T12:04:15;99259.00;;;33.71;23.13
27587;BME280;15019;49.002;8.420;2022-08-14T12:06:53;99253.38;;;33.52;22.08
27587;BME280;15019;49.002;8.420;2022-08-14T12:09:34;99259.06;;;33.32;22.12
27587;BME280;15019;49.002;8.420;2022-08-14T12:12:01;99263.00;;;33.20;21.49
27587;BME280;15019;49.002;8.420;2022-08-14T12:14:49;99253.53;;;33.50;21.99
27587;BME280;15019;49.002;8.420;2022-08-14T12:17:16;99250.56;;;33.53;21.45
27587;BME280;15019;49.002;8.420;2022-08-14T12:19:52;99239.25;;;33.53;21.80
27587;BME280;15019;49.002;8.420;2022-08-14T12:22:40;99244.22;;;33.48;21.08
27587;BME280;15019;49.002;8.420;2022-08-14T12:25:13;99240.16;;;33.37;21.95
27587;BME280;15019;49.002;8.420;2022-08-14T12:27:47;99241.69;;;33.54;22.18
27587;BME280;15019;49.002;8.420;2022-08-14T12:30:13;99229.44;;;33.69;22.66
27587;BME280;15019;49.002;8.420;2022-08-14T12:32:43;99228.06;;;33.82;22.34
27587;BME280;15019;49.002;8.420;2022-08-14T12:35:09;99230.03;;;33.26;21.64
27587;BME280;15019;49.002;8.420;2022-08-14T12:37:35;99222.09;;;32.79;22.78
27587;BME280;15019;49.002;8.420;2022-08-14T12:40:12;99225.53;;;32.79;22.80
27587;BME280;15019;49.002;8.420;2022-08-14T12:42:38;99207.16;;;32.79;22.80
27587;BME280;15019;49.002;8.420;2022-08-14T12:45:04;99211.09;;;32.83;23.33
27587;BME280;15019;49.002;8.420;2022-08-14T12:47:30;99201.22;;;32.93;22.74
27587;BME280;15019;49.002;8.420;2022-08-14T12:49:56;99193.75;;;33.13;22.97
27587;BME280;15019;49.002;8.420;2022-08-14T12:52:35;99185.13;;;32.88;23.34
27587;BME280;15019;49.002;8.420;2022-08-14T12:55:03;99189.72;;;32.86;23.07
27587;BME280;15019;49.002;8.420;2022-08-14T12:57:40;99182.41;;;32.74;22.98
27587;BME280;15019;49.002;8.420;2022-08-14T13:02:47;99174.34;;;32.83;23.15
27587;BME280;15019;49.002;8.420;2022-08-14T13:05:13;99171.38;;;32.78;22.97
27587;BME280;15019;49.002;8.420;2022-08-14T13:07:40;99170.03;;;32.90;23.68
27587;BME280;15019;49.002;8.420;2022-08-14T13:10:10;99174.31;;;32.91;23.80
27587;BME280;15019;49.002;8.420;2022-08-14T13:12:37;99169.41;;;32.80;23.48